SWA1704 KPIT-KDEN
Flight info
| Callsign | SWA1704 |
|---|---|
| Flight time | 3h 7m |
| Altitude | 38000 |
| Route | BSV CRL ELX OBK J94 DBQ OLU OBH BRWRY LAWGR4 |
| Aircraft | B738/M-SDGIJ1LRWY/SB1 |
Departure
| Time | 2026-05-07 12:26 |
|---|---|
| Airport | Pittsburgh International Airport (KPIT) |
Arrival
| Time | 2026-05-07 15:33 |
|---|---|
| Airport | Denver International Airport (KDEN) |
| Time | Latitude | Longitude | Altitude | Speed | Heading |
|---|---|---|---|---|---|
| 2026-05-07 11:42 | 40.49812 | -80.24368 | 1164 ft | 0 kts | 137° |
| 2026-05-07 12:12 | 40.49816 | -80.24373 | 1164 ft | 2 kts | 137° |
| 2026-05-07 12:12 | 40.49827 | -80.24387 | 1164 ft | 2 kts | 137° |
| 2026-05-07 12:13 | 40.49838 | -80.24400 | 1164 ft | 2 kts | 137° |
| 2026-05-07 12:13 | 40.49845 | -80.24409 | 1165 ft | 1 kts | 137° |
| 2026-05-07 12:13 | 40.49853 | -80.24424 | 1164 ft | 2 kts | 94° |
| 2026-05-07 12:13 | 40.49850 | -80.24442 | 1164 ft | 1 kts | 53° |
| 2026-05-07 12:14 | 40.49845 | -80.24448 | 1163 ft | 1 kts | 42° |
| 2026-05-07 12:14 | 40.49843 | -80.24451 | 1163 ft | 0 kts | 46° |
| 2026-05-07 12:17 | 40.49842 | -80.24452 | 1163 ft | 0 kts | 46° |
| 2026-05-07 12:17 | 40.49840 | -80.24455 | 1163 ft | 0 kts | 46° |
| 2026-05-07 12:18 | 40.49876 | -80.24406 | 1166 ft | 12 kts | 46° |
| 2026-05-07 12:18 | 40.49913 | -80.24314 | 1169 ft | 11 kts | 86° |
| 2026-05-07 12:18 | 40.49913 | -80.24158 | 1172 ft | 21 kts | 95° |
| 2026-05-07 12:18 | 40.49903 | -80.24013 | 1173 ft | 0 kts | 94° |
| 2026-05-07 12:19 | 40.49903 | -80.23975 | 1173 ft | 13 kts | 88° |
| 2026-05-07 12:19 | 40.49847 | -80.23872 | 1170 ft | 18 kts | 178° |
| 2026-05-07 12:19 | 40.49664 | -80.23878 | 1163 ft | 31 kts | 182° |
| 2026-05-07 12:19 | 40.49442 | -80.23888 | 1155 ft | 32 kts | 182° |
| 2026-05-07 12:20 | 40.49213 | -80.23897 | 1147 ft | 27 kts | 182° |
| 2026-05-07 12:20 | 40.49073 | -80.23878 | 1144 ft | 18 kts | 122° |
| 2026-05-07 12:20 | 40.49059 | -80.23685 | 1141 ft | 27 kts | 91° |
| 2026-05-07 12:20 | 40.49050 | -80.23377 | 1136 ft | 35 kts | 92° |
| 2026-05-07 12:21 | 40.49043 | -80.23061 | 1130 ft | 33 kts | 92° |
| 2026-05-07 12:21 | 40.49034 | -80.22752 | 1128 ft | 33 kts | 92° |
| 2026-05-07 12:21 | 40.49027 | -80.22452 | 1128 ft | 31 kts | 92° |
| 2026-05-07 12:21 | 40.49027 | -80.22264 | 1131 ft | 8 kts | 84° |
| 2026-05-07 12:22 | 40.49028 | -80.22242 | 1131 ft | 0 kts | 84° |
| 2026-05-07 12:22 | 40.49031 | -80.22212 | 1132 ft | 11 kts | 84° |
| 2026-05-07 12:22 | 40.49031 | -80.22065 | 1134 ft | 17 kts | 93° |
| 2026-05-07 12:22 | 40.48981 | -80.21938 | 1134 ft | 16 kts | 142° |
| 2026-05-07 12:23 | 40.48869 | -80.21816 | 1132 ft | 22 kts | 138° |
| 2026-05-07 12:23 | 40.48758 | -80.21686 | 1127 ft | 17 kts | 136° |
| 2026-05-07 12:23 | 40.48671 | -80.21568 | 1122 ft | 19 kts | 133° |
| 2026-05-07 12:23 | 40.48591 | -80.21479 | 1117 ft | 11 kts | 180° |
| 2026-05-07 12:24 | 40.48573 | -80.21610 | 1118 ft | 23 kts | 275° |
| 2026-05-07 12:24 | 40.48579 | -80.21690 | 1118 ft | 0 kts | 277° |
| 2026-05-07 12:25 | 40.48584 | -80.21831 | 1119 ft | 47 kts | 271° |
| 2026-05-07 12:25 | 40.48603 | -80.22577 | 1124 ft | 113 kts | 272° |
| 2026-05-07 12:25 | 40.48636 | -80.23865 | 1137 ft | 167 kts | 272° |
| 2026-05-07 12:25 | 40.48679 | -80.25444 | 1682 ft | 173 kts | 272° |
| 2026-05-07 12:26 | 40.48707 | -80.27011 | 2396 ft | 173 kts | 272° |
| 2026-05-07 12:26 | 40.48731 | -80.28588 | 2864 ft | 182 kts | 272° |
| 2026-05-07 12:26 | 40.48761 | -80.30311 | 3342 ft | 191 kts | 276° |
| 2026-05-07 12:26 | 40.49097 | -80.32008 | 3782 ft | 201 kts | 293° |
| 2026-05-07 12:27 | 40.49659 | -80.33780 | 4162 ft | 218 kts | 291° |
| 2026-05-07 12:27 | 40.50165 | -80.35719 | 4646 ft | 231 kts | 287° |
| 2026-05-07 12:27 | 40.50636 | -80.37783 | 5107 ft | 244 kts | 286° |
| 2026-05-07 12:27 | 40.51119 | -80.39963 | 5690 ft | 251 kts | 287° |
| 2026-05-07 12:28 | 40.51608 | -80.42142 | 6425 ft | 252 kts | 287° |
| 2026-05-07 12:28 | 40.52110 | -80.44360 | 7142 ft | 255 kts | 286° |
| 2026-05-07 12:28 | 40.52611 | -80.46561 | 7882 ft | 255 kts | 286° |
| 2026-05-07 12:28 | 40.53118 | -80.48790 | 8637 ft | 255 kts | 285° |
| 2026-05-07 12:29 | 40.53624 | -80.51021 | 9328 ft | 256 kts | 284° |
| 2026-05-07 12:29 | 40.54125 | -80.53232 | 10014 ft | 257 kts | 284° |
| 2026-05-07 12:29 | 40.54639 | -80.55514 | 10527 ft | 265 kts | 284° |
| 2026-05-07 12:29 | 40.55169 | -80.57870 | 10899 ft | 278 kts | 284° |
| 2026-05-07 12:30 | 40.55734 | -80.60387 | 11235 ft | 292 kts | 284° |
| 2026-05-07 12:30 | 40.56314 | -80.62960 | 11642 ft | 303 kts | 284° |
| 2026-05-07 12:30 | 40.56924 | -80.65669 | 12193 ft | 310 kts | 284° |
| 2026-05-07 12:30 | 40.57540 | -80.68393 | 12942 ft | 311 kts | 284° |
| 2026-05-07 12:31 | 40.58152 | -80.71099 | 13680 ft | 312 kts | 284° |
| 2026-05-07 12:31 | 40.58766 | -80.73828 | 14364 ft | 315 kts | 284° |
| 2026-05-07 12:31 | 40.59391 | -80.76618 | 15095 ft | 317 kts | 283° |
| 2026-05-07 12:31 | 40.60004 | -80.79353 | 15934 ft | 314 kts | 283° |
| 2026-05-07 12:32 | 40.60613 | -80.82084 | 16657 ft | 315 kts | 283° |
| 2026-05-07 12:32 | 40.61231 | -80.84854 | 17346 ft | 316 kts | 283° |
| 2026-05-07 12:32 | 40.61841 | -80.87592 | 18149 ft | 314 kts | 283° |
| 2026-05-07 12:32 | 40.62454 | -80.90346 | 18738 ft | 317 kts | 282° |
| 2026-05-07 12:33 | 40.63691 | -80.95904 | 20037 ft | 318 kts | 281° |
| 2026-05-07 12:33 | 40.64314 | -80.98701 | 20659 ft | 319 kts | 281° |
| 2026-05-07 12:33 | 40.64933 | -81.01499 | 21241 ft | 321 kts | 281° |
| 2026-05-07 12:34 | 40.65549 | -81.04289 | 21731 ft | 324 kts | 281° |
| 2026-05-07 12:34 | 40.66179 | -81.07137 | 22322 ft | 324 kts | 280° |
| 2026-05-07 12:34 | 40.66808 | -81.09985 | 22926 ft | 324 kts | 279° |
| 2026-05-07 12:34 | 40.67435 | -81.12826 | 23458 ft | 325 kts | 279° |
| 2026-05-07 12:35 | 40.68063 | -81.15675 | 23952 ft | 327 kts | 279° |
| 2026-05-07 12:35 | 40.68695 | -81.18560 | 24412 ft | 329 kts | 279° |
| 2026-05-07 12:35 | 40.69326 | -81.21441 | 24926 ft | 329 kts | 278° |
| 2026-05-07 12:35 | 40.69962 | -81.24358 | 25238 ft | 334 kts | 278° |
| 2026-05-07 12:36 | 40.70601 | -81.27277 | 25713 ft | 335 kts | 278° |
| 2026-05-07 12:36 | 40.71246 | -81.30221 | 26224 ft | 334 kts | 279° |
| 2026-05-07 12:36 | 40.71888 | -81.33150 | 26671 ft | 335 kts | 278° |
| 2026-05-07 12:36 | 40.72532 | -81.36099 | 27143 ft | 335 kts | 278° |
| 2026-05-07 12:37 | 40.73172 | -81.38993 | 27584 ft | 336 kts | 279° |
| 2026-05-07 12:37 | 40.73960 | -81.41908 | 27956 ft | 344 kts | 284° |
| 2026-05-07 12:37 | 40.75130 | -81.44710 | 28315 ft | 357 kts | 292° |
| 2026-05-07 12:37 | 40.76645 | -81.47348 | 28684 ft | 366 kts | 297° |
| 2026-05-07 12:38 | 40.78331 | -81.49947 | 28937 ft | 373 kts | 299° |
| 2026-05-07 12:38 | 40.80064 | -81.52486 | 29397 ft | 373 kts | 299° |
| 2026-05-07 12:38 | 40.81807 | -81.55012 | 29738 ft | 375 kts | 299° |
| 2026-05-07 12:38 | 40.83570 | -81.57594 | 29952 ft | 379 kts | 298° |
| 2026-05-07 12:39 | 40.85318 | -81.60175 | 30286 ft | 378 kts | 298° |
| 2026-05-07 12:39 | 40.87078 | -81.62788 | 30565 ft | 380 kts | 298° |
| 2026-05-07 12:39 | 40.88815 | -81.65389 | 30800 ft | 383 kts | 298° |
| 2026-05-07 12:39 | 40.90575 | -81.68033 | 31311 ft | 379 kts | 298° |
| 2026-05-07 12:40 | 40.92307 | -81.70622 | 31900 ft | 372 kts | 298° |
| 2026-05-07 12:40 | 40.94012 | -81.73177 | 32390 ft | 366 kts | 297° |
| 2026-05-07 12:40 | 40.95684 | -81.75708 | 32497 ft | 371 kts | 297° |
| 2026-05-07 12:40 | 40.97395 | -81.78318 | 32738 ft | 372 kts | 297° |
| 2026-05-07 12:41 | 40.99091 | -81.80891 | 33135 ft | 368 kts | 297° |
| 2026-05-07 12:41 | 41.00747 | -81.83398 | 33503 ft | 365 kts | 297° |
| 2026-05-07 12:41 | 41.02426 | -81.85946 | 33800 ft | 364 kts | 297° |
| 2026-05-07 12:41 | 41.04084 | -81.88475 | 34030 ft | 366 kts | 297° |
| 2026-05-07 12:42 | 41.05757 | -81.91030 | 34226 ft | 368 kts | 298° |
| 2026-05-07 12:42 | 41.07447 | -81.93617 | 34367 ft | 371 kts | 298° |
| 2026-05-07 12:42 | 41.09125 | -81.96181 | 34625 ft | 371 kts | 299° |
| 2026-05-07 12:42 | 41.10821 | -81.98761 | 34891 ft | 370 kts | 298° |
| 2026-05-07 12:43 | 41.12529 | -82.01366 | 35121 ft | 370 kts | 299° |
| 2026-05-07 12:43 | 41.14213 | -82.03938 | 35310 ft | 371 kts | 299° |
| 2026-05-07 12:43 | 41.15903 | -82.06522 | 35546 ft | 371 kts | 299° |
| 2026-05-07 12:43 | 41.17593 | -82.09108 | 35727 ft | 371 kts | 299° |
| 2026-05-07 12:44 | 41.20990 | -82.14324 | 35930 ft | 377 kts | 300° |
| 2026-05-07 12:44 | 41.22705 | -82.16956 | 36119 ft | 377 kts | 300° |
| 2026-05-07 12:44 | 41.24435 | -82.19608 | 36344 ft | 376 kts | 300° |
| 2026-05-07 12:45 | 41.27850 | -82.24863 | 36614 ft | 378 kts | 300° |
| 2026-05-07 12:45 | 41.29582 | -82.27531 | 36719 ft | 381 kts | 300° |
| 2026-05-07 12:45 | 41.31304 | -82.30186 | 36904 ft | 380 kts | 301° |
| 2026-05-07 12:46 | 41.33033 | -82.32850 | 37115 ft | 378 kts | 301° |
| 2026-05-07 12:46 | 41.34739 | -82.35480 | 37243 ft | 379 kts | 301° |
| 2026-05-07 12:46 | 41.36466 | -82.38149 | 37364 ft | 380 kts | 301° |
| 2026-05-07 12:46 | 41.38186 | -82.40813 | 37479 ft | 381 kts | 301° |
| 2026-05-07 12:47 | 41.39911 | -82.43487 | 37585 ft | 382 kts | 301° |
| 2026-05-07 12:47 | 41.41634 | -82.46158 | 37646 ft | 384 kts | 301° |
| 2026-05-07 12:47 | 41.43383 | -82.48873 | 37765 ft | 384 kts | 301° |
| 2026-05-07 12:47 | 41.45125 | -82.51577 | 37857 ft | 386 kts | 301° |
| 2026-05-07 12:48 | 41.48607 | -82.56987 | 37989 ft | 386 kts | 302° |
| 2026-05-07 12:48 | 41.52094 | -82.62414 | 37985 ft | 386 kts | 301° |
| 2026-05-07 12:49 | 41.55587 | -82.67864 | 37984 ft | 387 kts | 301° |
| 2026-05-07 12:49 | 41.59089 | -82.73333 | 37985 ft | 385 kts | 301° |
| 2026-05-07 12:50 | 41.62560 | -82.78770 | 37989 ft | 387 kts | 301° |
| 2026-05-07 12:50 | 41.66051 | -82.84249 | 37984 ft | 387 kts | 301° |
| 2026-05-07 12:51 | 41.69530 | -82.89717 | 37981 ft | 389 kts | 302° |
| 2026-05-07 12:51 | 41.73045 | -82.95251 | 37992 ft | 389 kts | 301° |
| 2026-05-07 12:52 | 41.76540 | -83.00758 | 37992 ft | 388 kts | 302° |
| 2026-05-07 12:52 | 41.80042 | -83.06293 | 37999 ft | 390 kts | 302° |
| 2026-05-07 12:53 | 41.83537 | -83.11829 | 37996 ft | 391 kts | 302° |
| 2026-05-07 12:53 | 41.87056 | -83.17411 | 37991 ft | 391 kts | 302° |
| 2026-05-07 12:54 | 41.90555 | -83.22970 | 37993 ft | 390 kts | 302° |
| 2026-05-07 12:54 | 41.94058 | -83.28548 | 37992 ft | 392 kts | 302° |
| 2026-05-07 12:55 | 41.97571 | -83.34156 | 38002 ft | 395 kts | 302° |
| 2026-05-07 12:55 | 42.01082 | -83.39811 | 37996 ft | 392 kts | 300° |
| 2026-05-07 12:56 | 42.03809 | -83.45985 | 37995 ft | 381 kts | 286° |
| 2026-05-07 12:56 | 42.05094 | -83.52792 | 37996 ft | 375 kts | 275° |
| 2026-05-07 12:57 | 42.05526 | -83.59733 | 37996 ft | 375 kts | 271° |
| 2026-05-07 12:57 | 42.05820 | -83.66747 | 37993 ft | 375 kts | 271° |
| 2026-05-07 12:58 | 42.06119 | -83.73743 | 37994 ft | 374 kts | 271° |
| 2026-05-07 12:58 | 42.06427 | -83.80714 | 37991 ft | 375 kts | 271° |
| 2026-05-07 12:59 | 42.06736 | -83.87701 | 37986 ft | 375 kts | 271° |
| 2026-05-07 12:59 | 42.07041 | -83.94692 | 37988 ft | 376 kts | 271° |
| 2026-05-07 13:00 | 42.07344 | -84.01677 | 37988 ft | 376 kts | 271° |
| 2026-05-07 13:00 | 42.07640 | -84.08662 | 37990 ft | 375 kts | 271° |
| 2026-05-07 13:01 | 42.07933 | -84.15652 | 37988 ft | 374 kts | 271° |
| 2026-05-07 13:01 | 42.08221 | -84.22624 | 37987 ft | 375 kts | 271° |
| 2026-05-07 13:02 | 42.08508 | -84.29646 | 37991 ft | 375 kts | 271° |
| 2026-05-07 13:02 | 42.08787 | -84.36610 | 37995 ft | 373 kts | 271° |
| 2026-05-07 13:03 | 42.09061 | -84.43557 | 37995 ft | 374 kts | 271° |
| 2026-05-07 13:03 | 42.09333 | -84.50566 | 37999 ft | 375 kts | 271° |
| 2026-05-07 13:04 | 42.09602 | -84.57519 | 37998 ft | 373 kts | 271° |
| 2026-05-07 13:04 | 42.09865 | -84.64498 | 38003 ft | 374 kts | 271° |
| 2026-05-07 13:05 | 42.10125 | -84.71463 | 37994 ft | 371 kts | 271° |
| 2026-05-07 13:05 | 42.10379 | -84.78422 | 38002 ft | 372 kts | 271° |
| 2026-05-07 13:06 | 42.10627 | -84.85321 | 38000 ft | 371 kts | 271° |
| 2026-05-07 13:06 | 42.10873 | -84.92240 | 38010 ft | 371 kts | 271° |
| 2026-05-07 13:07 | 42.11116 | -84.99210 | 38014 ft | 372 kts | 271° |
| 2026-05-07 13:07 | 42.11351 | -85.06123 | 38012 ft | 370 kts | 271° |
| 2026-05-07 13:08 | 42.11581 | -85.13029 | 38015 ft | 371 kts | 271° |
| 2026-05-07 13:08 | 42.11811 | -85.19999 | 38011 ft | 372 kts | 271° |
| 2026-05-07 13:09 | 42.11923 | -85.23457 | 38229 ft | 373 kts | 270° |
| 2026-05-07 13:09 | 42.12035 | -85.26926 | 38335 ft | 367 kts | 270° |
| 2026-05-07 13:09 | 42.12147 | -85.30318 | 38194 ft | 357 kts | 269° |
| 2026-05-07 13:09 | 42.12253 | -85.33574 | 37908 ft | 347 kts | 268° |
| 2026-05-07 13:10 | 42.12452 | -85.39963 | 37994 ft | 344 kts | 268° |
| 2026-05-07 13:10 | 42.12641 | -85.46439 | 37997 ft | 347 kts | 268° |
| 2026-05-07 13:11 | 42.12832 | -85.52950 | 38003 ft | 351 kts | 268° |
| 2026-05-07 13:11 | 42.13024 | -85.59535 | 38003 ft | 353 kts | 268° |
| 2026-05-07 13:12 | 42.13215 | -85.66137 | 38005 ft | 351 kts | 268° |
| 2026-05-07 13:12 | 42.13402 | -85.72694 | 38005 ft | 351 kts | 268° |
| 2026-05-07 13:13 | 42.13584 | -85.79261 | 38007 ft | 351 kts | 268° |
| 2026-05-07 13:13 | 42.13762 | -85.85842 | 38008 ft | 351 kts | 267° |
| 2026-05-07 13:14 | 42.13936 | -85.92377 | 38009 ft | 350 kts | 267° |
| 2026-05-07 13:14 | 42.14105 | -85.98907 | 38012 ft | 350 kts | 267° |
| 2026-05-07 13:15 | 42.14271 | -86.05432 | 38015 ft | 349 kts | 267° |
| 2026-05-07 13:15 | 42.14433 | -86.11962 | 38020 ft | 350 kts | 268° |
| 2026-05-07 13:16 | 42.14698 | -86.18491 | 38023 ft | 351 kts | 269° |
| 2026-05-07 13:16 | 42.15045 | -86.25048 | 38025 ft | 352 kts | 269° |
| 2026-05-07 13:17 | 42.15383 | -86.31628 | 37992 ft | 352 kts | 270° |
| 2026-05-07 13:17 | 42.15705 | -86.38188 | 38002 ft | 353 kts | 271° |
| 2026-05-07 13:18 | 42.16022 | -86.44795 | 38054 ft | 356 kts | 271° |
| 2026-05-07 13:18 | 42.16336 | -86.51477 | 38057 ft | 361 kts | 271° |
| 2026-05-07 13:19 | 42.16651 | -86.58277 | 38056 ft | 366 kts | 271° |
| 2026-05-07 13:19 | 42.16963 | -86.65110 | 38056 ft | 370 kts | 271° |
| 2026-05-07 13:20 | 42.17281 | -86.72134 | 38055 ft | 375 kts | 271° |
| 2026-05-07 13:20 | 42.17590 | -86.79072 | 38055 ft | 373 kts | 271° |
| 2026-05-07 13:21 | 42.17899 | -86.86085 | 38057 ft | 374 kts | 271° |
| 2026-05-07 13:21 | 42.18200 | -86.93034 | 38058 ft | 375 kts | 271° |
| 2026-05-07 13:22 | 42.18500 | -87.00052 | 38060 ft | 375 kts | 271° |
| 2026-05-07 13:22 | 42.18794 | -87.07050 | 38063 ft | 375 kts | 271° |
| 2026-05-07 13:23 | 42.19087 | -87.14092 | 38065 ft | 376 kts | 271° |
| 2026-05-07 13:23 | 42.19373 | -87.21095 | 38064 ft | 376 kts | 271° |
| 2026-05-07 13:24 | 42.19655 | -87.28117 | 38064 ft | 377 kts | 271° |
| 2026-05-07 13:24 | 42.19933 | -87.35127 | 38063 ft | 376 kts | 271° |
| 2026-05-07 13:25 | 42.20208 | -87.42156 | 38064 ft | 376 kts | 271° |
| 2026-05-07 13:25 | 42.20478 | -87.49197 | 38066 ft | 375 kts | 271° |
| 2026-05-07 13:26 | 42.20743 | -87.56197 | 38067 ft | 375 kts | 271° |
| 2026-05-07 13:26 | 42.21004 | -87.63227 | 38067 ft | 375 kts | 271° |
| 2026-05-07 13:27 | 42.21262 | -87.70258 | 38067 ft | 375 kts | 270° |
| 2026-05-07 13:27 | 42.21516 | -87.77315 | 38068 ft | 374 kts | 270° |
| 2026-05-07 13:28 | 42.21762 | -87.84293 | 38068 ft | 374 kts | 270° |
| 2026-05-07 13:28 | 42.22004 | -87.91260 | 38068 ft | 373 kts | 270° |
| 2026-05-07 13:29 | 42.22296 | -87.98273 | 38067 ft | 373 kts | 272° |
| 2026-05-07 13:29 | 42.22834 | -88.05232 | 38066 ft | 374 kts | 273° |
| 2026-05-07 13:30 | 42.23422 | -88.12215 | 38065 ft | 374 kts | 273° |
| 2026-05-07 13:30 | 42.23981 | -88.19136 | 38064 ft | 374 kts | 273° |
| 2026-05-07 13:31 | 42.24522 | -88.26123 | 38063 ft | 374 kts | 273° |
| 2026-05-07 13:31 | 42.25050 | -88.33083 | 38062 ft | 375 kts | 273° |
| 2026-05-07 13:32 | 42.25575 | -88.40108 | 38060 ft | 376 kts | 273° |
| 2026-05-07 13:32 | 42.26095 | -88.47115 | 38059 ft | 377 kts | 273° |
| 2026-05-07 13:33 | 42.26610 | -88.54129 | 38059 ft | 378 kts | 273° |
| 2026-05-07 13:33 | 42.27123 | -88.61156 | 38062 ft | 379 kts | 273° |
| 2026-05-07 13:34 | 42.27891 | -88.71806 | 38063 ft | 381 kts | 272° |
| 2026-05-07 13:35 | 42.28397 | -88.78893 | 38064 ft | 382 kts | 272° |
| 2026-05-07 13:35 | 42.28903 | -88.86054 | 38067 ft | 383 kts | 273° |
| 2026-05-07 13:36 | 42.29403 | -88.93192 | 38069 ft | 384 kts | 273° |
| 2026-05-07 13:36 | 42.29900 | -89.00355 | 38070 ft | 386 kts | 273° |
| 2026-05-07 13:37 | 42.30396 | -89.07559 | 38071 ft | 387 kts | 273° |
| 2026-05-07 13:37 | 42.30888 | -89.14777 | 38072 ft | 388 kts | 273° |
| 2026-05-07 13:38 | 42.31379 | -89.22035 | 38073 ft | 389 kts | 273° |
| 2026-05-07 13:38 | 42.31863 | -89.29273 | 38071 ft | 390 kts | 273° |
| 2026-05-07 13:39 | 42.32342 | -89.36585 | 38069 ft | 391 kts | 273° |
| 2026-05-07 13:39 | 42.32806 | -89.43868 | 38066 ft | 391 kts | 273° |
| 2026-05-07 13:40 | 42.33264 | -89.51176 | 38063 ft | 392 kts | 273° |
| 2026-05-07 13:40 | 42.33722 | -89.58514 | 38062 ft | 392 kts | 273° |
| 2026-05-07 13:41 | 42.34177 | -89.65865 | 38063 ft | 393 kts | 272° |
| 2026-05-07 13:41 | 42.34628 | -89.73226 | 38060 ft | 393 kts | 272° |
| 2026-05-07 13:42 | 42.35076 | -89.80602 | 38057 ft | 393 kts | 272° |
| 2026-05-07 13:42 | 42.35511 | -89.87946 | 38053 ft | 393 kts | 272° |
| 2026-05-07 13:43 | 42.35951 | -89.95317 | 38049 ft | 393 kts | 272° |
| 2026-05-07 13:43 | 42.36380 | -90.02698 | 38044 ft | 393 kts | 272° |
| 2026-05-07 13:44 | 42.36802 | -90.10032 | 38042 ft | 393 kts | 272° |
| 2026-05-07 13:44 | 42.37221 | -90.17413 | 38035 ft | 394 kts | 272° |
| 2026-05-07 13:45 | 42.37633 | -90.24764 | 38032 ft | 394 kts | 272° |
| 2026-05-07 13:45 | 42.38051 | -90.32150 | 38025 ft | 395 kts | 272° |
| 2026-05-07 13:46 | 42.38467 | -90.39556 | 38022 ft | 395 kts | 272° |
| 2026-05-07 13:46 | 42.38871 | -90.46955 | 38024 ft | 396 kts | 272° |
| 2026-05-07 13:47 | 42.39273 | -90.54367 | 38024 ft | 396 kts | 272° |
| 2026-05-07 13:47 | 42.39673 | -90.61750 | 38017 ft | 397 kts | 273° |
| 2026-05-07 13:48 | 42.39975 | -90.69224 | 38008 ft | 396 kts | 269° |
| 2026-05-07 13:48 | 42.39564 | -90.76607 | 38009 ft | 396 kts | 262° |
| 2026-05-07 13:49 | 42.38709 | -90.83970 | 38009 ft | 397 kts | 261° |
| 2026-05-07 13:49 | 42.37842 | -90.91306 | 38008 ft | 398 kts | 261° |
| 2026-05-07 13:50 | 42.36977 | -90.98699 | 38007 ft | 398 kts | 262° |
| 2026-05-07 13:50 | 42.36121 | -91.06057 | 38001 ft | 399 kts | 262° |
| 2026-05-07 13:51 | 42.35260 | -91.13441 | 37997 ft | 399 kts | 262° |
| 2026-05-07 13:51 | 42.34394 | -91.20843 | 37994 ft | 399 kts | 262° |
| 2026-05-07 13:52 | 42.33524 | -91.28238 | 37992 ft | 399 kts | 262° |
| 2026-05-07 13:52 | 42.32660 | -91.35607 | 37990 ft | 399 kts | 262° |
| 2026-05-07 13:53 | 42.31775 | -91.43010 | 37990 ft | 399 kts | 262° |
| 2026-05-07 13:53 | 42.30891 | -91.50373 | 37992 ft | 400 kts | 262° |
| 2026-05-07 13:54 | 42.30004 | -91.57758 | 37995 ft | 401 kts | 262° |
| 2026-05-07 13:54 | 42.29108 | -91.65173 | 37996 ft | 401 kts | 262° |
| 2026-05-07 13:55 | 42.28204 | -91.72585 | 37997 ft | 401 kts | 262° |
| 2026-05-07 13:55 | 42.27291 | -91.80006 | 37999 ft | 400 kts | 262° |
| 2026-05-07 13:56 | 42.26383 | -91.87399 | 37998 ft | 400 kts | 262° |
| 2026-05-07 13:56 | 42.25468 | -91.94755 | 37998 ft | 400 kts | 262° |
| 2026-05-07 13:57 | 42.24550 | -92.02113 | 37997 ft | 400 kts | 262° |
| 2026-05-07 13:57 | 42.23631 | -92.09500 | 37995 ft | 400 kts | 262° |
| 2026-05-07 13:58 | 42.22699 | -92.16911 | 37990 ft | 400 kts | 262° |
| 2026-05-07 13:58 | 42.21772 | -92.24260 | 37991 ft | 400 kts | 262° |
| 2026-05-07 13:59 | 42.20841 | -92.31627 | 37991 ft | 400 kts | 262° |
| 2026-05-07 13:59 | 42.19893 | -92.39016 | 37988 ft | 400 kts | 262° |
| 2026-05-07 14:00 | 42.18940 | -92.46368 | 37986 ft | 400 kts | 262° |
| 2026-05-07 14:00 | 42.17986 | -92.53770 | 37981 ft | 400 kts | 262° |
| 2026-05-07 14:01 | 42.17034 | -92.61142 | 37978 ft | 400 kts | 262° |
| 2026-05-07 14:01 | 42.16074 | -92.68491 | 37979 ft | 401 kts | 262° |
| 2026-05-07 14:02 | 42.15102 | -92.75883 | 37979 ft | 401 kts | 262° |
| 2026-05-07 14:02 | 42.14133 | -92.83223 | 37980 ft | 400 kts | 262° |
| 2026-05-07 14:03 | 42.13152 | -92.90614 | 37981 ft | 400 kts | 262° |
| 2026-05-07 14:03 | 42.12176 | -92.97939 | 37982 ft | 400 kts | 262° |
| 2026-05-07 14:04 | 42.11189 | -93.05312 | 37983 ft | 400 kts | 262° |
| 2026-05-07 14:04 | 42.10203 | -93.12631 | 37982 ft | 399 kts | 262° |
| 2026-05-07 14:05 | 42.09215 | -93.19926 | 37982 ft | 398 kts | 262° |
| 2026-05-07 14:05 | 42.08222 | -93.27229 | 37981 ft | 398 kts | 263° |
| 2026-05-07 14:06 | 42.07221 | -93.34557 | 37979 ft | 398 kts | 263° |
| 2026-05-07 14:06 | 42.06222 | -93.41830 | 37974 ft | 397 kts | 263° |
| 2026-05-07 14:07 | 42.05217 | -93.49112 | 37970 ft | 397 kts | 263° |
| 2026-05-07 14:07 | 42.04207 | -93.56397 | 37979 ft | 397 kts | 263° |
| 2026-05-07 14:08 | 42.03190 | -93.63693 | 37988 ft | 396 kts | 263° |
| 2026-05-07 14:08 | 42.02174 | -93.70945 | 37990 ft | 396 kts | 262° |
| 2026-05-07 14:09 | 42.01158 | -93.78162 | 37989 ft | 394 kts | 262° |
| 2026-05-07 14:09 | 42.00135 | -93.85400 | 37981 ft | 395 kts | 263° |
| 2026-05-07 14:10 | 41.99110 | -93.92620 | 37972 ft | 395 kts | 263° |
| 2026-05-07 14:10 | 41.98078 | -93.99842 | 37969 ft | 394 kts | 263° |
| 2026-05-07 14:11 | 41.97046 | -94.07044 | 37966 ft | 394 kts | 263° |
| 2026-05-07 14:11 | 41.96003 | -94.14281 | 37968 ft | 394 kts | 263° |
| 2026-05-07 14:12 | 41.94961 | -94.21476 | 37972 ft | 394 kts | 263° |
| 2026-05-07 14:12 | 41.93911 | -94.28701 | 37972 ft | 394 kts | 263° |
| 2026-05-07 14:13 | 41.92863 | -94.35871 | 37973 ft | 394 kts | 263° |
| 2026-05-07 14:13 | 41.91803 | -94.43089 | 37973 ft | 393 kts | 263° |
| 2026-05-07 14:14 | 41.90747 | -94.50249 | 37974 ft | 392 kts | 263° |
| 2026-05-07 14:14 | 41.89679 | -94.57458 | 37974 ft | 392 kts | 263° |
| 2026-05-07 14:15 | 41.88615 | -94.64602 | 37975 ft | 392 kts | 263° |
| 2026-05-07 14:15 | 41.87537 | -94.71796 | 37975 ft | 392 kts | 262° |
| 2026-05-07 14:16 | 41.86457 | -94.78972 | 37975 ft | 390 kts | 262° |
| 2026-05-07 14:16 | 41.85386 | -94.86066 | 37976 ft | 390 kts | 262° |
| 2026-05-07 14:17 | 41.84308 | -94.93182 | 37977 ft | 390 kts | 262° |
| 2026-05-07 14:17 | 41.83223 | -95.00313 | 37980 ft | 389 kts | 262° |
| 2026-05-07 14:18 | 41.82135 | -95.07433 | 37981 ft | 388 kts | 262° |
| 2026-05-07 14:18 | 41.81054 | -95.14477 | 37982 ft | 388 kts | 262° |
| 2026-05-07 14:19 | 41.79960 | -95.21572 | 37982 ft | 387 kts | 262° |
| 2026-05-07 14:19 | 41.78864 | -95.28658 | 37982 ft | 387 kts | 262° |
| 2026-05-07 14:20 | 41.77769 | -95.35703 | 37981 ft | 387 kts | 262° |
| 2026-05-07 14:20 | 41.76664 | -95.42776 | 37980 ft | 387 kts | 262° |
| 2026-05-07 14:21 | 41.75557 | -95.49843 | 37979 ft | 387 kts | 262° |
| 2026-05-07 14:21 | 41.74446 | -95.56898 | 37978 ft | 388 kts | 262° |
| 2026-05-07 14:22 | 41.73331 | -95.63946 | 37976 ft | 388 kts | 262° |
| 2026-05-07 14:22 | 41.72211 | -95.70999 | 37975 ft | 388 kts | 262° |
| 2026-05-07 14:23 | 41.71088 | -95.78040 | 37973 ft | 387 kts | 262° |
| 2026-05-07 14:23 | 41.69960 | -95.85081 | 37973 ft | 387 kts | 262° |
| 2026-05-07 14:24 | 41.68827 | -95.92128 | 37971 ft | 387 kts | 262° |
| 2026-05-07 14:24 | 41.67697 | -95.99130 | 37968 ft | 387 kts | 262° |
| 2026-05-07 14:25 | 41.66553 | -96.06185 | 37968 ft | 387 kts | 262° |
| 2026-05-07 14:25 | 41.65409 | -96.13209 | 37968 ft | 388 kts | 262° |
| 2026-05-07 14:26 | 41.64251 | -96.20293 | 37967 ft | 388 kts | 262° |
| 2026-05-07 14:26 | 41.63103 | -96.27288 | 37966 ft | 388 kts | 262° |
| 2026-05-07 14:27 | 41.61942 | -96.34333 | 37967 ft | 388 kts | 262° |
| 2026-05-07 14:27 | 41.60783 | -96.41335 | 37967 ft | 387 kts | 262° |
| 2026-05-07 14:28 | 41.59616 | -96.48361 | 37968 ft | 387 kts | 262° |
| 2026-05-07 14:28 | 41.58442 | -96.55395 | 37968 ft | 387 kts | 262° |
| 2026-05-07 14:29 | 41.57261 | -96.62447 | 37969 ft | 387 kts | 262° |
| 2026-05-07 14:29 | 41.56084 | -96.69449 | 37969 ft | 388 kts | 261° |
| 2026-05-07 14:30 | 41.54905 | -96.76431 | 37969 ft | 387 kts | 261° |
| 2026-05-07 14:30 | 41.53711 | -96.83473 | 37968 ft | 387 kts | 261° |
| 2026-05-07 14:31 | 41.52524 | -96.90450 | 37967 ft | 387 kts | 261° |
| 2026-05-07 14:31 | 41.51329 | -96.97442 | 37965 ft | 387 kts | 262° |
| 2026-05-07 14:32 | 41.50130 | -97.04438 | 37961 ft | 387 kts | 262° |
| 2026-05-07 14:32 | 41.48931 | -97.11398 | 37956 ft | 386 kts | 262° |
| 2026-05-07 14:33 | 41.47728 | -97.18357 | 37951 ft | 386 kts | 262° |
| 2026-05-07 14:33 | 41.46518 | -97.25336 | 37951 ft | 387 kts | 262° |
| 2026-05-07 14:34 | 41.45300 | -97.32365 | 37950 ft | 387 kts | 262° |
| 2026-05-07 14:34 | 41.44504 | -97.39374 | 37950 ft | 383 kts | 268° |
| 2026-05-07 14:35 | 41.44034 | -97.46500 | 37949 ft | 383 kts | 269° |
| 2026-05-07 14:35 | 41.43592 | -97.53572 | 37949 ft | 384 kts | 269° |
| 2026-05-07 14:36 | 41.43121 | -97.60655 | 37949 ft | 384 kts | 269° |
| 2026-05-07 14:36 | 41.42625 | -97.67748 | 37949 ft | 384 kts | 268° |
| 2026-05-07 14:37 | 41.42114 | -97.74875 | 37948 ft | 384 kts | 268° |
| 2026-05-07 14:37 | 41.41343 | -97.85451 | 37945 ft | 384 kts | 268° |
| 2026-05-07 14:38 | 41.40820 | -97.92546 | 37942 ft | 384 kts | 268° |
| 2026-05-07 14:38 | 41.40293 | -97.99623 | 37939 ft | 384 kts | 268° |
| 2026-05-07 14:39 | 41.39765 | -98.06665 | 37938 ft | 384 kts | 268° |
| 2026-05-07 14:39 | 41.39231 | -98.13732 | 37940 ft | 384 kts | 268° |
| 2026-05-07 14:40 | 41.38693 | -98.20791 | 37944 ft | 385 kts | 268° |
| 2026-05-07 14:40 | 41.38146 | -98.27904 | 37940 ft | 385 kts | 268° |
| 2026-05-07 14:41 | 41.37474 | -98.34943 | 37936 ft | 387 kts | 263° |
| 2026-05-07 14:41 | 41.36077 | -98.41892 | 37938 ft | 391 kts | 258° |
| 2026-05-07 14:42 | 41.34362 | -98.48799 | 37938 ft | 391 kts | 257° |
| 2026-05-07 14:42 | 41.32639 | -98.55640 | 37939 ft | 391 kts | 257° |
| 2026-05-07 14:43 | 41.30921 | -98.62521 | 37940 ft | 391 kts | 257° |
| 2026-05-07 14:43 | 41.29212 | -98.69408 | 37941 ft | 392 kts | 257° |
| 2026-05-07 14:44 | 41.27517 | -98.76246 | 37940 ft | 391 kts | 257° |
| 2026-05-07 14:44 | 41.25806 | -98.83136 | 37940 ft | 391 kts | 257° |
| 2026-05-07 14:45 | 41.24106 | -98.89968 | 37941 ft | 391 kts | 257° |
| 2026-05-07 14:45 | 41.22379 | -98.96883 | 37941 ft | 391 kts | 257° |
| 2026-05-07 14:46 | 41.20663 | -99.03738 | 37943 ft | 391 kts | 257° |
| 2026-05-07 14:46 | 41.18952 | -99.10555 | 37943 ft | 391 kts | 257° |
| 2026-05-07 14:47 | 41.17233 | -99.17381 | 37945 ft | 391 kts | 257° |
| 2026-05-07 14:47 | 41.15502 | -99.24236 | 37947 ft | 392 kts | 257° |
| 2026-05-07 14:48 | 41.13767 | -99.31086 | 37948 ft | 391 kts | 257° |
| 2026-05-07 14:48 | 41.12030 | -99.37924 | 37950 ft | 391 kts | 257° |
| 2026-05-07 14:49 | 41.10281 | -99.44790 | 37950 ft | 391 kts | 257° |
| 2026-05-07 14:49 | 41.08551 | -99.51563 | 37950 ft | 391 kts | 257° |
| 2026-05-07 14:50 | 41.06795 | -99.58421 | 37951 ft | 391 kts | 256° |
| 2026-05-07 14:50 | 41.05031 | -99.65286 | 37953 ft | 392 kts | 256° |
| 2026-05-07 14:51 | 41.03267 | -99.72140 | 37957 ft | 392 kts | 256° |
| 2026-05-07 14:51 | 41.01504 | -99.78961 | 37963 ft | 392 kts | 256° |
| 2026-05-07 14:52 | 40.99733 | -99.85795 | 37965 ft | 392 kts | 256° |
| 2026-05-07 14:52 | 40.97966 | -99.92593 | 37967 ft | 391 kts | 256° |
| 2026-05-07 14:53 | 40.96189 | -99.99412 | 37968 ft | 392 kts | 256° |
| 2026-05-07 14:53 | 40.94407 | -100.06235 | 37973 ft | 392 kts | 256° |
| 2026-05-07 14:54 | 40.92628 | -100.13028 | 37978 ft | 393 kts | 256° |
| 2026-05-07 14:54 | 40.90838 | -100.19840 | 37973 ft | 393 kts | 255° |
| 2026-05-07 14:55 | 40.89041 | -100.26659 | 37971 ft | 393 kts | 255° |
| 2026-05-07 14:55 | 40.87255 | -100.33417 | 37972 ft | 393 kts | 255° |
| 2026-05-07 14:56 | 40.85449 | -100.40236 | 37969 ft | 393 kts | 255° |
| 2026-05-07 14:56 | 40.83648 | -100.47016 | 37966 ft | 393 kts | 255° |
| 2026-05-07 14:57 | 40.81831 | -100.53835 | 37965 ft | 393 kts | 255° |
| 2026-05-07 14:57 | 40.80008 | -100.60661 | 37965 ft | 393 kts | 255° |
| 2026-05-07 14:58 | 40.78294 | -100.67445 | 37969 ft | 391 kts | 258° |
| 2026-05-07 14:58 | 40.77031 | -100.74438 | 37972 ft | 390 kts | 261° |
| 2026-05-07 14:59 | 40.75905 | -100.81438 | 37973 ft | 390 kts | 261° |
| 2026-05-07 14:59 | 40.74769 | -100.88389 | 37975 ft | 390 kts | 261° |
| 2026-05-07 15:00 | 40.73595 | -100.95385 | 37977 ft | 390 kts | 261° |
| 2026-05-07 15:00 | 40.72409 | -101.02341 | 37979 ft | 390 kts | 261° |
| 2026-05-07 15:01 | 40.71215 | -101.09286 | 37981 ft | 391 kts | 261° |
| 2026-05-07 15:01 | 40.69997 | -101.16316 | 37983 ft | 391 kts | 261° |
| 2026-05-07 15:02 | 40.68776 | -101.23309 | 37980 ft | 391 kts | 261° |
| 2026-05-07 15:02 | 40.67559 | -101.30238 | 37975 ft | 390 kts | 261° |
| 2026-05-07 15:03 | 40.66327 | -101.37231 | 37976 ft | 390 kts | 260° |
| 2026-05-07 15:03 | 40.65105 | -101.44147 | 37977 ft | 390 kts | 260° |
| 2026-05-07 15:04 | 40.63871 | -101.51107 | 37979 ft | 391 kts | 260° |
| 2026-05-07 15:04 | 40.62635 | -101.58054 | 37982 ft | 391 kts | 260° |
| 2026-05-07 15:05 | 40.61394 | -101.64997 | 37982 ft | 391 kts | 260° |
| 2026-05-07 15:05 | 40.60144 | -101.71968 | 37983 ft | 391 kts | 259° |
| 2026-05-07 15:06 | 40.58900 | -101.78881 | 37983 ft | 391 kts | 259° |
| 2026-05-07 15:06 | 40.57640 | -101.85853 | 37985 ft | 391 kts | 259° |
| 2026-05-07 15:07 | 40.56377 | -101.92819 | 37988 ft | 391 kts | 259° |
| 2026-05-07 15:07 | 40.55101 | -101.99823 | 38022 ft | 392 kts | 259° |
| 2026-05-07 15:08 | 40.53817 | -102.06769 | 38032 ft | 388 kts | 259° |
| 2026-05-07 15:08 | 40.52532 | -102.13673 | 38003 ft | 384 kts | 259° |
| 2026-05-07 15:09 | 40.51258 | -102.20506 | 37995 ft | 386 kts | 259° |
| 2026-05-07 15:09 | 40.49971 | -102.27396 | 37990 ft | 386 kts | 259° |
| 2026-05-07 15:10 | 40.49320 | -102.30864 | 37835 ft | 381 kts | 259° |
| 2026-05-07 15:10 | 40.48686 | -102.34231 | 37523 ft | 376 kts | 259° |
| 2026-05-07 15:10 | 40.48060 | -102.37553 | 37066 ft | 376 kts | 259° |
| 2026-05-07 15:10 | 40.47427 | -102.40913 | 36503 ft | 377 kts | 259° |
| 2026-05-07 15:11 | 40.46798 | -102.44255 | 35905 ft | 380 kts | 259° |
| 2026-05-07 15:11 | 40.46157 | -102.47654 | 35266 ft | 383 kts | 260° |
| 2026-05-07 15:11 | 40.45517 | -102.51041 | 34614 ft | 385 kts | 260° |
| 2026-05-07 15:11 | 40.44874 | -102.54437 | 33899 ft | 388 kts | 260° |
| 2026-05-07 15:12 | 40.44211 | -102.57929 | 33168 ft | 390 kts | 260° |
| 2026-05-07 15:12 | 40.43553 | -102.61383 | 32625 ft | 386 kts | 260° |
| 2026-05-07 15:12 | 40.42905 | -102.64766 | 32181 ft | 380 kts | 261° |
| 2026-05-07 15:12 | 40.42256 | -102.68148 | 31809 ft | 374 kts | 260° |
| 2026-05-07 15:13 | 40.41607 | -102.71532 | 31393 ft | 382 kts | 260° |
| 2026-05-07 15:13 | 40.40950 | -102.74958 | 30978 ft | 385 kts | 260° |
| 2026-05-07 15:13 | 40.40291 | -102.78371 | 30563 ft | 381 kts | 259° |
| 2026-05-07 15:13 | 40.39635 | -102.81751 | 30257 ft | 377 kts | 259° |
| 2026-05-07 15:14 | 40.38991 | -102.85067 | 29971 ft | 376 kts | 259° |
| 2026-05-07 15:14 | 40.38338 | -102.88431 | 29701 ft | 375 kts | 260° |
| 2026-05-07 15:14 | 40.37698 | -102.91718 | 29438 ft | 374 kts | 260° |
| 2026-05-07 15:14 | 40.37051 | -102.95045 | 29161 ft | 372 kts | 260° |
| 2026-05-07 15:15 | 40.36412 | -102.98320 | 28888 ft | 371 kts | 260° |
| 2026-05-07 15:15 | 40.35772 | -103.01605 | 28614 ft | 371 kts | 260° |
| 2026-05-07 15:15 | 40.35127 | -103.04914 | 28338 ft | 370 kts | 260° |
| 2026-05-07 15:15 | 40.34498 | -103.08155 | 28066 ft | 369 kts | 260° |
| 2026-05-07 15:16 | 40.33861 | -103.11433 | 27790 ft | 368 kts | 260° |
| 2026-05-07 15:16 | 40.33225 | -103.14700 | 27514 ft | 366 kts | 260° |
| 2026-05-07 15:16 | 40.32602 | -103.17879 | 27200 ft | 360 kts | 260° |
| 2026-05-07 15:16 | 40.31983 | -103.21031 | 26776 ft | 355 kts | 260° |
| 2026-05-07 15:17 | 40.31367 | -103.24174 | 26321 ft | 352 kts | 260° |
| 2026-05-07 15:17 | 40.30762 | -103.27261 | 25872 ft | 349 kts | 260° |
| 2026-05-07 15:17 | 40.30165 | -103.30290 | 25423 ft | 346 kts | 260° |
| 2026-05-07 15:17 | 40.29563 | -103.33323 | 24912 ft | 342 kts | 260° |
| 2026-05-07 15:18 | 40.28965 | -103.36318 | 24460 ft | 337 kts | 260° |
| 2026-05-07 15:18 | 40.28377 | -103.39262 | 24017 ft | 332 kts | 260° |
| 2026-05-07 15:18 | 40.27796 | -103.42170 | 23590 ft | 330 kts | 260° |
| 2026-05-07 15:18 | 40.27211 | -103.45116 | 23177 ft | 342 kts | 260° |
| 2026-05-07 15:19 | 40.26600 | -103.48218 | 22710 ft | 361 kts | 260° |
| 2026-05-07 15:19 | 40.25964 | -103.51421 | 22215 ft | 365 kts | 260° |
| 2026-05-07 15:19 | 40.25321 | -103.54617 | 21725 ft | 360 kts | 260° |
| 2026-05-07 15:19 | 40.24687 | -103.57751 | 21256 ft | 356 kts | 260° |
| 2026-05-07 15:20 | 40.24063 | -103.60865 | 20781 ft | 351 kts | 260° |
| 2026-05-07 15:20 | 40.23455 | -103.63926 | 20305 ft | 348 kts | 260° |
| 2026-05-07 15:20 | 40.22852 | -103.66978 | 19830 ft | 346 kts | 259° |
| 2026-05-07 15:20 | 40.22252 | -103.70025 | 19346 ft | 344 kts | 260° |
| 2026-05-07 15:21 | 40.21658 | -103.73032 | 18879 ft | 341 kts | 260° |
| 2026-05-07 15:21 | 40.21063 | -103.76028 | 18393 ft | 339 kts | 260° |
| 2026-05-07 15:21 | 40.20472 | -103.78996 | 17927 ft | 336 kts | 260° |
| 2026-05-07 15:21 | 40.19890 | -103.81920 | 17483 ft | 334 kts | 260° |
| 2026-05-07 15:22 | 40.19303 | -103.84853 | 16995 ft | 332 kts | 260° |
| 2026-05-07 15:22 | 40.18719 | -103.87756 | 16651 ft | 326 kts | 260° |
| 2026-05-07 15:22 | 40.18087 | -103.90552 | 16484 ft | 315 kts | 256° |
| 2026-05-07 15:22 | 40.17274 | -103.93179 | 16200 ft | 312 kts | 251° |
| 2026-05-07 15:23 | 40.16309 | -103.95734 | 15748 ft | 312 kts | 248° |
| 2026-05-07 15:23 | 40.15305 | -103.98217 | 15343 ft | 310 kts | 248° |
| 2026-05-07 15:23 | 40.14282 | -104.00732 | 14934 ft | 307 kts | 248° |
| 2026-05-07 15:23 | 40.13322 | -104.03169 | 14531 ft | 305 kts | 249° |
| 2026-05-07 15:24 | 40.12359 | -104.05627 | 14108 ft | 301 kts | 248° |
| 2026-05-07 15:24 | 40.11409 | -104.08012 | 13742 ft | 291 kts | 248° |
| 2026-05-07 15:24 | 40.10467 | -104.10309 | 13366 ft | 284 kts | 245° |
| 2026-05-07 15:24 | 40.09280 | -104.12356 | 13074 ft | 281 kts | 227° |
| 2026-05-07 15:25 | 40.07621 | -104.13622 | 13043 ft | 274 kts | 202° |
| 2026-05-07 15:25 | 40.05745 | -104.14013 | 13051 ft | 274 kts | 185° |
| 2026-05-07 15:25 | 40.03812 | -104.13907 | 13052 ft | 280 kts | 180° |
| 2026-05-07 15:25 | 40.01862 | -104.13683 | 13052 ft | 280 kts | 179° |
| 2026-05-07 15:26 | 39.99913 | -104.13675 | 12897 ft | 276 kts | 199° |
| 2026-05-07 15:26 | 39.98277 | -104.14761 | 12663 ft | 258 kts | 233° |
| 2026-05-07 15:26 | 39.97394 | -104.16680 | 12408 ft | 241 kts | 259° |
| 2026-05-07 15:26 | 39.96913 | -104.18748 | 12057 ft | 245 kts | 249° |
| 2026-05-07 15:27 | 39.95934 | -104.20582 | 11753 ft | 249 kts | 232° |
| 2026-05-07 15:27 | 39.94771 | -104.22257 | 11427 ft | 248 kts | 232° |
| 2026-05-07 15:27 | 39.93702 | -104.24022 | 11111 ft | 247 kts | 235° |
| 2026-05-07 15:27 | 39.92719 | -104.25855 | 10801 ft | 246 kts | 237° |
| 2026-05-07 15:28 | 39.91771 | -104.27690 | 10500 ft | 244 kts | 237° |
| 2026-05-07 15:28 | 39.90826 | -104.29522 | 10206 ft | 243 kts | 236° |
| 2026-05-07 15:28 | 39.89881 | -104.31342 | 9896 ft | 242 kts | 236° |
| 2026-05-07 15:28 | 39.88929 | -104.33170 | 9573 ft | 241 kts | 236° |
| 2026-05-07 15:29 | 39.88019 | -104.34973 | 9298 ft | 236 kts | 241° |
| 2026-05-07 15:29 | 39.87483 | -104.36951 | 9059 ft | 233 kts | 261° |
| 2026-05-07 15:29 | 39.87440 | -104.39059 | 8758 ft | 232 kts | 271° |
| 2026-05-07 15:29 | 39.87537 | -104.41098 | 8415 ft | 225 kts | 272° |
| 2026-05-07 15:30 | 39.87566 | -104.43082 | 8135 ft | 216 kts | 271° |
| 2026-05-07 15:30 | 39.87564 | -104.44995 | 7850 ft | 207 kts | 273° |
| 2026-05-07 15:30 | 39.87581 | -104.46819 | 7581 ft | 194 kts | 275° |
| 2026-05-07 15:30 | 39.87601 | -104.48494 | 7318 ft | 179 kts | 275° |
| 2026-05-07 15:31 | 39.87620 | -104.50119 | 7085 ft | 181 kts | 273° |
| 2026-05-07 15:31 | 39.87633 | -104.51771 | 6837 ft | 182 kts | 272° |
| 2026-05-07 15:31 | 39.87647 | -104.53426 | 6596 ft | 175 kts | 272° |
| 2026-05-07 15:31 | 39.87662 | -104.54931 | 6354 ft | 157 kts | 271° |
| 2026-05-07 15:32 | 39.87673 | -104.56293 | 6161 ft | 150 kts | 271° |
| 2026-05-07 15:32 | 39.87689 | -104.57674 | 5969 ft | 153 kts | 269° |
| 2026-05-07 15:32 | 39.87697 | -104.59074 | 5762 ft | 154 kts | 268° |
| 2026-05-07 15:32 | 39.87713 | -104.60474 | 5569 ft | 154 kts | 268° |
| 2026-05-07 15:33 | 39.87730 | -104.61861 | 5358 ft | 147 kts | 267° |
| 2026-05-07 15:33 | 39.87729 | -104.63148 | 5321 ft | 116 kts | 269° |
| 2026-05-07 15:33 | 39.87737 | -104.63979 | 5330 ft | 67 kts | 265° |
| 2026-05-07 15:33 | 39.87733 | -104.64327 | 5334 ft | 18 kts | 260° |
| 2026-05-07 15:34 | 39.87693 | -104.64469 | 5336 ft | 14 kts | 251° |
| 2026-05-07 15:34 | 39.87662 | -104.64585 | 5337 ft | 12 kts | 249° |
| 2026-05-07 15:34 | 39.87631 | -104.64676 | 5338 ft | 9 kts | 242° |
| 2026-05-07 15:34 | 39.87603 | -104.64741 | 5339 ft | 6 kts | 243° |
| 2026-05-07 15:35 | 39.87586 | -104.64807 | 5340 ft | 12 kts | 261° |
| 2026-05-07 15:35 | 39.87581 | -104.64975 | 5342 ft | 19 kts | 270° |
| 2026-05-07 15:35 | 39.87581 | -104.65165 | 5346 ft | 25 kts | 270° |
| 2026-05-07 15:35 | 39.87583 | -104.65409 | 5350 ft | 25 kts | 270° |
| 2026-05-07 15:36 | 39.87583 | -104.65627 | 5354 ft | 22 kts | 271° |
| 2026-05-07 15:36 | 39.87585 | -104.65820 | 5354 ft | 20 kts | 272° |
| 2026-05-07 15:36 | 39.87588 | -104.65999 | 5354 ft | 18 kts | 270° |
| 2026-05-07 15:36 | 39.87588 | -104.66136 | 5354 ft | 12 kts | 268° |
| 2026-05-07 15:37 | 39.87531 | -104.66206 | 5354 ft | 11 kts | 184° |
| 2026-05-07 15:37 | 39.87459 | -104.66205 | 5356 ft | 8 kts | 176° |
| 2026-05-07 15:37 | 39.87397 | -104.66207 | 5357 ft | 12 kts | 184° |
| 2026-05-07 15:37 | 39.87283 | -104.66213 | 5360 ft | 15 kts | 181° |
| 2026-05-07 15:38 | 39.87181 | -104.66216 | 5362 ft | 12 kts | 181° |
| 2026-05-07 15:38 | 39.87094 | -104.66219 | 5362 ft | 11 kts | 181° |
| 2026-05-07 15:38 | 39.87029 | -104.66219 | 5364 ft | 7 kts | 179° |
| 2026-05-07 15:38 | 39.86986 | -104.66219 | 5366 ft | 3 kts | 180° |
| 2026-05-07 15:39 | 39.86966 | -104.66219 | 5367 ft | 5 kts | 180° |
| 2026-05-07 15:39 | 39.86897 | -104.66219 | 5369 ft | 13 kts | 181° |
| 2026-05-07 15:39 | 39.86819 | -104.66222 | 5372 ft | 8 kts | 181° |
| 2026-05-07 15:39 | 39.86749 | -104.66222 | 5375 ft | 14 kts | 180° |
| 2026-05-07 15:40 | 39.86664 | -104.66222 | 5379 ft | 10 kts | 180° |
| 2026-05-07 15:40 | 39.86599 | -104.66223 | 5380 ft | 11 kts | 179° |
| 2026-05-07 15:40 | 39.86524 | -104.66235 | 5381 ft | 9 kts | 214° |
| 2026-05-07 15:40 | 39.86502 | -104.66319 | 5379 ft | 12 kts | 266° |
| 2026-05-07 15:41 | 39.86499 | -104.66449 | 5376 ft | 13 kts | 267° |
| 2026-05-07 15:41 | 39.86434 | -104.66509 | 5375 ft | 11 kts | 201° |
| 2026-05-07 15:41 | 39.86407 | -104.66597 | 5374 ft | 10 kts | 269° |
| 2026-05-07 15:41 | 39.86409 | -104.66693 | 5374 ft | 9 kts | 272° |
| 2026-05-07 15:42 | 39.86412 | -104.66778 | 5374 ft | 8 kts | 272° |
| 2026-05-07 15:42 | 39.86412 | -104.66849 | 5374 ft | 8 kts | 265° |
| 2026-05-07 15:42 | 39.86410 | -104.66962 | 5374 ft | 13 kts | 270° |
| 2026-05-07 15:42 | 39.86411 | -104.67087 | 5374 ft | 12 kts | 270° |
| 2026-05-07 15:43 | 39.86411 | -104.67203 | 5374 ft | 14 kts | 269° |
| 2026-05-07 15:43 | 39.86413 | -104.67326 | 5374 ft | 13 kts | 271° |
| 2026-05-07 15:43 | 39.86414 | -104.67440 | 5374 ft | 11 kts | 270° |
| 2026-05-07 15:43 | 39.86415 | -104.67542 | 5374 ft | 10 kts | 271° |
| 2026-05-07 15:44 | 39.86416 | -104.67634 | 5374 ft | 9 kts | 270° |
| 2026-05-07 15:44 | 39.86411 | -104.67670 | 5374 ft | 4 kts | 232° |
| 2026-05-07 15:44 | 39.86377 | -104.67683 | 5374 ft | 4 kts | 185° |
| 2026-05-07 15:44 | 39.86361 | -104.67685 | 5374 ft | 0 kts | 182° |